Main page
METAR-TAF:

METAR-TAF

Airports :

Beauvais–Tillé Airport

Beauvais, France

latitude: 49-28N, longitude: 002-07E, elevation: 109 m

Current weather observation

The report was made 36 minutes ago, at 08:30 UTC
Wind 5 kt from the West/Southwest, varying between South/Southwest and West
Temperature 18°C
Humidity 83%
Pressure 1021 hPa
Visibility 10 km or more
Overcast at a height of 1700 ft

METAR: LFOB 150830Z AUTO 24005KT 200V280 9999 OVC017 18/15 Q1021 NOSIG

Time: 11:06 (09:06 UTC)

Forecast

The report was made 4 hours and 6 minutes ago, at 05:00 UTC
Forecast valid from 15 at 06 UTC to 16 at 06 UTC
Wind 5 kt from the West
Visibility 10 km or more
Broken clouds at a height of 2000 ft
Temporary
from 15 at 06 UTC to 15 at 08 UTC
Broken clouds at a height of 1200 ft
Becoming
from 16 at 00 UTC to 16 at 03 UTC
Visibility: 3000 m
mist

TAF: LFOB 150500Z 1506/1606 27005KT 9999 BKN020 TEMPO 1506/1508 BKN012 BECMG 1600/1603 3000 BR

Weather observations and forecasts of more than 4000 airports (METAR and TAF reports).

The available stations are represented by yellow and red dots on the map.

Hover mouse over dot to see the name of the station.

Then click to see weather observations and forecasts.

To change the map : click on the green buttons with a black cross to zoom in, on the green button with a dash to zoom out, or on the green arrows for adjacent maps.


METAR-TAF: